Time;durP1;ratioP1;P1;durP2;ratioP2;P2;SDS_P1;SDS_P2;PMS_P1;PMS_P2;Temp;Humidity;BMP_temperature;BMP_pressure;BME280_temperature;BME280_humidity;BME280_pressure;Samples;Min_cycle;Max_cycle;Signal;HPM_P1;HPM_P2
2022/07/12 00:00:24;;;;;;;4.10;3.73;;;15.20;99.90;;;;;;501622;237;29296;-69
2022/07/12 00:02:25;;;;;;;3.87;3.57;;;15.10;99.90;;;;;;501586;237;28680;-69
2022/07/12 00:04:26;;;;;;;3.93;3.63;;;15.20;99.90;;;;;;501633;237;28668;-69
2022/07/12 00:06:28;;;;;;;4.13;3.83;;;15.10;99.90;;;;;;501631;237;28766;-71
2022/07/12 00:08:29;;;;;;;3.97;3.67;;;15.00;99.90;;;;;;501607;237;28677;-69
2022/07/12 00:10:30;;;;;;;4.50;4.10;;;14.80;99.90;;;;;;501650;237;28708;-70
2022/07/12 00:12:32;;;;;;;3.90;3.60;;;14.70;99.90;;;;;;501611;237;28462;-69
2022/07/12 00:14:33;;;;;;;3.97;3.60;;;14.70;99.90;;;;;;501639;237;28657;-70
2022/07/12 00:16:34;;;;;;;4.53;4.13;;;14.60;99.90;;;;;;501643;237;28717;-71
2022/07/12 00:18:35;;;;;;;4.33;3.93;;;14.60;99.90;;;;;;501611;237;28677;-69
2022/07/12 00:20:37;;;;;;;4.10;3.80;;;14.50;99.90;;;;;;501628;237;29191;-69
2022/07/12 00:22:38;;;;;;;4.30;4.00;;;14.40;99.90;;;;;;501571;237;29645;-69
2022/07/12 00:24:40;;;;;;;3.87;3.57;;;14.40;99.90;;;;;;501630;237;29124;-69
2022/07/12 00:26:40;;;;;;;4.67;4.23;;;14.40;99.90;;;;;;501550;237;29212;-71
2022/07/12 00:28:41;;;;;;;3.60;3.37;;;14.30;99.90;;;;;;501579;237;28768;-69
2022/07/12 00:30:43;;;;;;;4.40;4.10;;;14.20;99.90;;;;;;501617;237;28696;-69
2022/07/12 00:32:44;;;;;;;4.30;3.90;;;14.20;99.90;;;;;;501583;237;28695;-69
2022/07/12 00:34:45;;;;;;;4.23;3.83;;;14.20;99.90;;;;;;501628;237;28392;-69
2022/07/12 00:36:46;;;;;;;3.47;3.27;;;14.20;99.90;;;;;;501602;237;28275;-72
2022/07/12 00:38:48;;;;;;;4.40;4.00;;;14.30;99.90;;;;;;501605;237;28760;-69
2022/07/12 00:40:49;;;;;;;4.10;3.80;;;14.30;99.90;;;;;;501604;237;28468;-69
2022/07/12 00:42:50;;;;;;;3.93;3.63;;;14.30;99.90;;;;;;501652;237;28408;-72
2022/07/12 00:44:51;;;;;;;4.63;4.23;;;14.30;99.90;;;;;;501576;237;28281;-70
2022/07/12 00:46:53;;;;;;;4.43;4.03;;;14.30;99.90;;;;;;501608;237;28916;-68
2022/07/12 00:48:54;;;;;;;4.00;3.70;;;14.20;99.90;;;;;;501587;237;28837;-69
2022/07/12 00:50:55;;;;;;;3.90;3.60;;;14.20;99.90;;;;;;501602;237;28991;-69
2022/07/12 00:52:57;;;;;;;4.50;4.10;;;14.10;99.90;;;;;;501631;237;28806;-73
2022/07/12 00:54:58;;;;;;;4.10;3.80;;;14.10;99.90;;;;;;501563;237;28258;-69
2022/07/12 00:56:59;;;;;;;4.00;3.70;;;14.10;99.90;;;;;;501599;237;28787;-70
2022/07/12 00:59:00;;;;;;;3.73;3.43;;;14.10;99.90;;;;;;501583;237;28367;-69
2022/07/12 01:01:01;;;;;;;4.13;3.83;;;14.10;99.90;;;;;;501645;237;28688;-69
2022/07/12 01:03:03;;;;;;;4.40;4.10;;;14.10;99.90;;;;;;501612;237;28142;-71
2022/07/12 01:05:04;;;;;;;3.90;3.60;;;14.10;99.90;;;;;;501598;237;28384;-69
2022/07/12 01:07:05;;;;;;;4.00;3.70;;;14.20;99.90;;;;;;501634;237;28365;-69
2022/07/12 01:09:07;;;;;;;4.73;4.33;;;14.20;99.90;;;;;;501595;237;28282;-69
2022/07/12 01:11:08;;;;;;;3.97;3.67;;;14.20;99.90;;;;;;501617;237;29000;-70
2022/07/12 01:13:09;;;;;;;4.87;3.60;;;14.10;99.90;;;;;;501629;237;28786;-71
2022/07/12 01:15:10;;;;;;;4.13;3.67;;;14.10;99.90;;;;;;501615;237;28883;-69
2022/07/12 01:17:11;;;;;;;4.80;4.40;;;14.10;99.90;;;;;;501630;237;28413;-70
2022/07/12 01:19:17;;;;;;;4.03;3.73;;;14.10;99.90;;;;;;501648;237;28360;-69
2022/07/12 01:21:14;;;;;;;4.53;4.20;;;14.10;99.90;;;;;;501284;237;28384;-69
2022/07/12 01:23:15;;;;;;;4.20;3.90;;;14.00;99.90;;;;;;501625;237;28486;-71
2022/07/12 01:25:16;;;;;;;4.53;4.10;;;14.10;99.90;;;;;;501627;237;28268;-68
2022/07/12 01:27:18;;;;;;;3.83;3.53;;;14.10;99.90;;;;;;501624;237;28775;-69
2022/07/12 01:29:19;;;;;;;4.43;4.03;;;14.10;99.90;;;;;;501644;237;28249;-69
2022/07/12 01:31:20;;;;;;;4.10;3.80;;;14.00;99.90;;;;;;501584;237;28136;-69
2022/07/12 01:33:21;;;;;;;4.70;4.30;;;13.90;99.90;;;;;;501655;237;28172;-70
2022/07/12 01:35:23;;;;;;;4.10;3.80;;;13.70;99.90;;;;;;501583;237;28906;-69
2022/07/12 01:37:24;;;;;;;4.23;3.90;;;13.70;99.90;;;;;;501613;237;28898;-70
2022/07/12 01:39:25;;;;;;;4.73;4.33;;;13.60;99.90;;;;;;501631;237;29377;-69
2022/07/12 01:41:26;;;;;;;6.33;3.90;;;13.70;99.90;;;;;;501618;237;28861;-69
2022/07/12 01:43:28;;;;;;;3.83;3.53;;;13.70;99.90;;;;;;501650;237;28309;-72
2022/07/12 01:45:29;;;;;;;4.50;4.10;;;13.70;99.90;;;;;;501637;237;28338;-69
2022/07/12 01:47:30;;;;;;;4.00;3.70;;;13.80;99.90;;;;;;501649;237;28082;-69
2022/07/12 01:49:31;;;;;;;4.60;4.30;;;13.80;99.90;;;;;;501651;237;28160;-69
2022/07/12 01:51:33;;;;;;;3.80;3.50;;;13.80;99.90;;;;;;501627;237;28264;-69
2022/07/12 01:53:34;;;;;;;4.30;4.00;;;13.80;99.90;;;;;;501660;237;28271;-71
2022/07/12 01:55:35;;;;;;;4.40;4.00;;;13.70;99.90;;;;;;501639;237;28139;-69
2022/07/12 01:57:37;;;;;;;4.20;3.90;;;13.60;99.90;;;;;;501605;237;28098;-69
2022/07/12 01:59:38;;;;;;;4.20;3.90;;;13.50;99.90;;;;;;501619;237;28262;-69
2022/07/12 02:01:39;;;;;;;4.30;4.00;;;13.50;99.90;;;;;;501569;237;28757;-69
2022/07/12 02:03:40;;;;;;;4.30;4.00;;;13.50;99.90;;;;;;501625;237;28803;-71
2022/07/12 02:05:42;;;;;;;4.20;3.90;;;13.50;99.90;;;;;;501605;237;28623;-69
2022/07/12 02:07:43;;;;;;;3.90;3.60;;;13.60;99.90;;;;;;501588;237;28184;-70
2022/07/12 02:09:44;;;;;;;4.07;3.77;;;13.60;99.90;;;;;;501618;237;28050;-69
2022/07/12 02:11:47;;;;;;;4.07;3.67;;;13.60;99.90;;;;;;501608;237;28203;-70
2022/07/12 02:13:47;;;;;;;4.23;3.93;;;13.60;99.90;;;;;;501561;237;28200;-70
2022/07/12 02:15:48;;;;;;;4.10;3.80;;;13.60;99.90;;;;;;501626;237;28336;-68
2022/07/12 02:17:49;;;;;;;4.37;3.90;;;13.60;99.90;;;;;;501595;237;28157;-70
2022/07/12 02:19:50;;;;;;;4.60;4.20;;;13.60;99.90;;;;;;501615;237;28087;-72
2022/07/12 02:21:52;;;;;;;3.83;3.53;;;13.50;99.90;;;;;;501612;237;28704;-70
2022/07/12 02:23:53;;;;;;;4.57;4.23;;;13.50;99.90;;;;;;501575;237;28574;-70
2022/07/12 02:25:54;;;;;;;4.20;3.80;;;13.50;99.90;;;;;;501618;237;29321;-68
2022/07/12 02:27:55;;;;;;;3.90;3.60;;;13.50;99.90;;;;;;501566;237;28765;-70
2022/07/12 02:29:57;;;;;;;4.07;3.77;;;13.40;99.90;;;;;;501623;237;28085;-72
2022/07/12 02:31:58;;;;;;;3.60;3.40;;;13.40;99.90;;;;;;501633;237;28200;-70
2022/07/12 02:33:59;;;;;;;4.03;3.73;;;13.50;99.90;;;;;;501575;237;28378;-69
2022/07/12 02:36:00;;;;;;;3.70;3.40;;;13.40;99.90;;;;;;501433;237;28186;-68
2022/07/12 02:38:02;;;;;;;3.67;3.37;;;13.40;99.90;;;;;;501597;237;28205;-70
2022/07/12 02:42:22;;;;;;;4.33;4.00;;;13.50;99.90;;;;;;501628;236;28162;-69
2022/07/12 02:44:23;;;;;;;3.83;3.53;;;13.40;99.90;;;;;;501620;237;28088;-70
2022/07/12 02:46:25;;;;;;;3.90;3.60;;;13.40;99.90;;;;;;501619;237;28184;-69
2022/07/12 02:48:26;;;;;;;3.20;3.00;;;13.40;99.90;;;;;;501578;237;28191;-70
2022/07/12 02:50:27;;;;;;;6.20;3.27;;;13.30;99.90;;;;;;501610;237;28996;-69
2022/07/12 02:52:28;;;;;;;3.67;3.37;;;13.30;99.90;;;;;;501622;237;28577;-69
2022/07/12 02:54:30;;;;;;;3.80;3.50;;;13.30;99.90;;;;;;501627;237;28675;-71
2022/07/12 02:56:31;;;;;;;3.37;3.07;;;13.40;99.90;;;;;;501625;237;28257;-69
2022/07/12 02:58:32;;;;;;;3.63;3.37;;;13.30;99.90;;;;;;501570;237;28070;-69
2022/07/12 03:00:34;;;;;;;3.50;3.23;;;13.30;99.90;;;;;;501601;237;28058;-68
2022/07/12 03:02:35;;;;;;;3.73;3.43;;;13.30;99.90;;;;;;501597;237;28041;-69
2022/07/12 03:04:36;;;;;;;3.57;3.27;;;13.10;99.90;;;;;;501592;237;28398;-71
2022/07/12 03:06:37;;;;;;;3.33;3.13;;;13.10;99.90;;;;;;501613;237;28054;-69
2022/07/12 03:08:38;;;;;;;3.47;3.27;;;13.10;99.90;;;;;;501605;237;28164;-69
2022/07/12 03:10:40;;;;;;;3.60;3.30;;;13.10;99.90;;;;;;501603;237;28172;-72
2022/07/12 03:12:41;;;;;;;3.30;3.10;;;13.00;99.90;;;;;;501618;237;28268;-69
2022/07/12 03:14:42;;;;;;;3.43;3.23;;;13.00;99.90;;;;;;501625;237;28576;-69
2022/07/12 03:16:43;;;;;;;3.17;2.97;;;12.90;99.90;;;;;;501624;237;28612;-69
2022/07/12 03:18:45;;;;;;;3.23;3.03;;;13.00;99.90;;;;;;501637;237;28659;-70
2022/07/12 03:20:46;;;;;;;3.07;2.87;;;13.00;99.90;;;;;;501641;237;28690;-72
2022/07/12 03:22:50;;;;;;;3.27;3.03;;;13.00;99.90;;;;;;501640;237;28163;-69
2022/07/12 03:24:48;;;;;;;3.60;3.30;;;13.00;99.90;;;;;;501468;237;28093;-69
2022/07/12 03:26:51;;;;;;;2.93;2.83;;;13.00;99.90;;;;;;501646;237;28160;-70
2022/07/12 03:28:52;;;;;;;3.20;3.00;;;;;;;;;;501570;237;28142;-71
2022/07/12 03:30:53;;;;;;;3.27;3.07;;;12.80;99.90;;;;;;501603;237;26969;-68
2022/07/12 03:32:55;;;;;;;3.40;3.20;;;12.70;99.90;;;;;;501604;237;28855;-70
2022/07/12 03:34:56;;;;;;;3.40;3.20;;;12.70;99.90;;;;;;501582;237;28531;-69
2022/07/12 03:36:57;;;;;;;3.37;3.17;;;12.70;99.90;;;;;;501593;237;28098;-69
2022/07/12 03:38:58;;;;;;;3.20;3.00;;;12.60;99.90;;;;;;501283;235;28731;-72
2022/07/12 03:41:00;;;;;;;3.60;3.30;;;12.70;99.90;;;;;;501612;237;28176;-69
2022/07/12 03:43:01;;;;;;;3.40;3.10;;;12.70;99.90;;;;;;501499;237;28174;-69
2022/07/12 03:45:03;;;;;;;3.60;3.30;;;;;;;;;;501648;237;28445;-69
2022/07/12 03:47:04;;;;;;;3.67;3.37;;;12.70;99.90;;;;;;501606;236;27433;-74
2022/07/12 03:49:06;;;;;;;3.47;3.27;;;12.70;99.90;;;;;;501636;237;28182;-70
2022/07/12 03:51:07;;;;;;;3.40;3.20;;;12.80;99.90;;;;;;501593;237;28704;-70
2022/07/12 03:53:08;;;;;;;3.20;2.90;;;12.80;99.90;;;;;;501613;237;28849;-69
2022/07/12 03:55:09;;;;;;;3.30;3.10;;;12.80;99.90;;;;;;501605;237;28044;-69
2022/07/12 03:57:14;;;;;;;3.27;3.07;;;12.80;99.90;;;;;;501580;237;28213;-71
2022/07/12 03:59:15;;;;;;;3.43;3.23;;;12.90;99.90;;;;;;501606;237;28707;-72
2022/07/12 04:01:16;;;;;;;3.07;2.87;;;12.90;99.90;;;;;;501577;237;28371;-70
2022/07/12 04:03:18;;;;;;;3.43;3.17;;;12.90;99.90;;;;;;501593;237;29168;-69
2022/07/12 04:05:19;;;;;;;3.50;3.20;;;12.90;99.90;;;;;;501615;237;28629;-69
2022/07/12 04:07:21;;;;;;;2.90;2.70;;;12.90;99.90;;;;;;501577;237;28529;-68
2022/07/12 04:09:21;;;;;;;3.10;2.90;;;13.00;99.90;;;;;;501549;237;28674;-72
2022/07/12 04:11:24;;;;;;;3.10;2.90;;;;;;;;;;501619;237;27930;-68
2022/07/12 04:13:25;;;;;;;3.30;3.10;;;12.90;99.90;;;;;;501582;236;26897;-69
2022/07/12 04:15:27;;;;;;;3.30;3.10;;;;;;;;;;501597;237;28121;-71
2022/07/12 04:17:28;;;;;;;3.50;3.20;;;12.90;99.90;;;;;;501573;236;26594;-69
2022/07/12 04:19:31;;;;;;;4.50;2.70;;;12.90;99.90;;;;;;501621;237;28043;-71
2022/07/12 04:21:31;;;;;;;3.00;2.80;;;12.90;99.90;;;;;;501541;237;28265;-69
2022/07/12 04:23:33;;;;;;;3.07;2.87;;;;;;;;;;501552;237;28187;-72
2022/07/12 04:25:35;;;;;;;2.97;2.77;;;12.90;99.90;;;;;;501635;236;26361;-69
2022/07/12 04:27:37;;;;;;;3.00;2.80;;;;;;;;;;501612;237;28179;-69
2022/07/12 04:29:38;;;;;;;3.30;3.03;;;12.90;99.90;;;;;;501650;236;26824;-69
2022/07/12 04:31:39;;;;;;;3.07;2.87;;;13.00;99.90;;;;;;501655;237;28660;-71
2022/07/12 04:33:41;;;;;;;3.00;2.80;;;12.90;99.90;;;;;;501615;237;28603;-70
2022/07/12 04:35:42;;;;;;;2.87;2.67;;;12.90;99.90;;;;;;501656;237;28581;-69
2022/07/12 04:37:43;;;;;;;2.93;2.73;;;12.80;99.90;;;;;;501599;237;28728;-69
2022/07/12 04:39:45;;;;;;;3.00;2.80;;;12.70;99.90;;;;;;501645;237;28248;-69
2022/07/12 04:41:47;;;;;;;3.53;3.30;;;;;;;;;;501648;237;27991;-69
2022/07/12 04:43:48;;;;;;;3.40;3.20;;;12.60;99.90;;;;;;501612;236;26601;-70
2022/07/12 04:45:49;;;;;;;3.87;3.50;;;12.70;99.90;;;;;;501603;237;29258;-69
2022/07/12 04:47:51;;;;;;;3.00;2.80;;;12.70;99.90;;;;;;501637;237;28702;-70
2022/07/12 04:49:52;;;;;;;4.03;3.63;;;12.80;99.90;;;;;;501612;237;28544;-71
2022/07/12 04:51:53;;;;;;;3.27;3.07;;;12.90;99.90;;;;;;501652;237;28113;-69
2022/07/12 04:53:54;;;;;;;3.40;3.20;;;13.00;99.90;;;;;;501618;237;28143;-69
2022/07/12 04:55:56;;;;;;;3.13;2.90;;;13.00;99.90;;;;;;501659;237;28258;-69
2022/07/12 04:57:57;;;;;;;3.50;3.30;;;13.10;99.90;;;;;;501663;237;28172;-70
2022/07/12 04:59:58;;;;;;;3.70;3.40;;;13.10;99.90;;;;;;501605;237;28090;-72
2022/07/12 05:01:59;;;;;;;3.50;3.30;;;13.20;99.90;;;;;;501628;237;28712;-69
2022/07/12 05:04:01;;;;;;;3.80;3.50;;;13.40;99.90;;;;;;501596;237;28177;-69
2022/07/12 05:06:02;;;;;;;3.33;3.13;;;13.50;99.90;;;;;;501630;237;28139;-69
2022/07/12 05:08:04;;;;;;;3.57;3.13;;;13.50;99.90;;;;;;501629;237;28161;-69
2022/07/12 05:10:04;;;;;;;3.50;3.20;;;13.60;99.90;;;;;;501590;237;28655;-69
2022/07/12 05:12:06;;;;;;;3.57;3.37;;;13.70;99.90;;;;;;501602;237;28492;-69
2022/07/12 05:14:07;;;;;;;3.50;3.30;;;13.80;99.90;;;;;;501612;237;28650;-70
2022/07/12 05:16:08;;;;;;;3.00;2.80;;;13.90;99.90;;;;;;501622;237;28551;-69
2022/07/12 05:18:09;;;;;;;3.70;3.43;;;13.90;99.90;;;;;;501645;237;28382;-69
2022/07/12 05:20:11;;;;;;;3.20;3.00;;;14.00;99.90;;;;;;501613;237;28066;-71
2022/07/12 05:22:12;;;;;;;3.37;3.07;;;14.10;99.90;;;;;;501615;237;28026;-69
2022/07/12 05:24:13;;;;;;;3.70;3.50;;;14.00;99.90;;;;;;501618;237;28303;-70
2022/07/12 05:26:14;;;;;;;3.40;3.10;;;14.10;99.90;;;;;;501623;237;28167;-69
2022/07/12 05:28:16;;;;;;;3.03;2.83;;;14.20;99.90;;;;;;501650;237;28719;-69
2022/07/12 05:30:17;;;;;;;3.90;3.60;;;14.30;99.90;;;;;;501614;237;28470;-71
2022/07/12 05:32:18;;;;;;;3.53;3.33;;;14.20;99.90;;;;;;501654;237;28260;-70
2022/07/12 05:34:19;;;;;;;3.70;3.40;;;14.20;99.90;;;;;;501651;237;28900;-70
2022/07/12 05:36:21;;;;;;;3.40;3.20;;;14.20;99.90;;;;;;501622;237;29496;-69
2022/07/12 05:38:22;;;;;;;2.97;2.77;;;14.20;99.90;;;;;;501682;237;29144;-69
2022/07/12 05:40:23;;;;;;;3.87;3.57;;;14.20;99.90;;;;;;501647;237;28985;-70
2022/07/12 05:42:24;;;;;;;3.47;3.27;;;14.30;99.90;;;;;;501660;237;28710;-70
2022/07/12 05:44:26;;;;;;;4.07;3.77;;;14.40;99.90;;;;;;501632;237;28506;-70
2022/07/12 05:46:27;;;;;;;3.40;3.20;;;14.40;99.90;;;;;;501600;237;28656;-69
2022/07/12 05:48:28;;;;;;;3.07;2.87;;;14.40;99.90;;;;;;501648;237;28712;-70
2022/07/12 05:50:29;;;;;;;3.70;3.40;;;14.60;99.90;;;;;;501631;237;28731;-72
2022/07/12 05:54:50;;;;;;;3.70;3.40;;;14.70;99.90;;;;;;501627;237;28700;-68
2022/07/12 05:56:51;;;;;;;3.07;2.87;;;14.80;99.90;;;;;;501592;237;28699;-69
2022/07/12 05:58:53;;;;;;;3.70;3.50;;;15.00;99.90;;;;;;501623;237;28715;-69
2022/07/12 06:00:54;;;;;;;3.17;2.97;;;15.30;99.90;;;;;;501615;237;28705;-69
2022/07/12 06:02:55;;;;;;;3.00;2.80;;;16.20;99.90;;;;;;501634;237;28751;-69
2022/07/12 06:04:56;;;;;;;2.63;2.50;;;16.50;99.90;;;;;;501628;237;28702;-69
2022/07/12 06:06:58;;;;;;;2.60;2.50;;;16.70;99.90;;;;;;501608;237;29706;-69
2022/07/12 06:09:00;;;;;;;2.60;2.50;;;16.80;99.90;;;;;;501640;237;29203;-70
2022/07/12 06:11:01;;;;;;;2.60;2.50;;;17.00;99.90;;;;;;501630;237;28766;-73
2022/07/12 06:13:02;;;;;;;2.30;2.20;;;17.00;99.90;;;;;;501598;237;28714;-74
2022/07/12 06:15:04;;;;;;;2.30;2.13;;;17.10;99.90;;;;;;501615;237;29675;-70
2022/07/12 06:17:08;;;;;;;2.20;2.10;;;17.20;99.90;;;;;;501621;237;29221;-70
2022/07/12 06:19:06;;;;;;;2.10;2.00;;;17.10;99.90;;;;;;501367;237;29161;-72
2022/07/12 06:21:08;;;;;;;2.43;2.33;;;17.30;99.90;;;;;;501627;237;28667;-70
2022/07/12 06:23:09;;;;;;;2.20;2.10;;;17.50;99.90;;;;;;501613;237;28773;-70
2022/07/12 06:25:10;;;;;;;2.37;2.23;;;17.50;99.90;;;;;;501634;237;28833;-73
2022/07/12 06:27:11;;;;;;;2.07;1.90;;;17.50;99.90;;;;;;501509;237;29278;-68
2022/07/12 06:29:13;;;;;;;2.10;2.00;;;17.50;99.90;;;;;;503956;233;29087;-70
2022/07/12 06:31:14;;;;;;;2.10;2.00;;;17.50;99.90;;;;;;505165;235;29095;-70
2022/07/12 06:33:15;;;;;;;2.33;2.23;;;17.60;99.90;;;;;;505161;235;28663;-69
2022/07/12 06:35:16;;;;;;;2.50;2.40;;;17.60;99.90;;;;;;505206;235;28742;-73
2022/07/12 06:37:18;;;;;;;2.13;2.03;;;17.70;99.90;;;;;;505210;235;28645;-71
2022/07/12 06:39:19;;;;;;;2.07;1.97;;;17.80;99.90;;;;;;505191;235;28737;-71
2022/07/12 06:41:20;;;;;;;2.33;1.83;;;17.80;99.90;;;;;;505265;235;28659;-69
2022/07/12 06:43:21;;;;;;;2.27;2.17;;;17.80;99.90;;;;;;505237;235;28675;-70
2022/07/12 06:45:23;;;;;;;2.30;2.20;;;17.90;99.90;;;;;;505271;235;29031;-72
2022/07/12 06:47:24;;;;;;;2.07;1.97;;;17.70;99.90;;;;;;505281;235;28640;-70
2022/07/12 06:49:25;;;;;;;2.00;1.90;;;17.70;99.90;;;;;;505239;235;28657;-70
2022/07/12 06:51:26;;;;;;;2.10;2.00;;;17.90;99.90;;;;;;505258;235;29171;-70
2022/07/12 06:53:28;;;;;;;1.93;1.80;;;17.80;99.90;;;;;;505241;235;29245;-70
2022/07/12 06:55:30;;;;;;;2.17;2.07;;;18.00;99.90;;;;;;505261;235;29154;-73
2022/07/12 06:57:30;;;;;;;2.03;1.93;;;18.00;99.90;;;;;;505270;235;29166;-70
2022/07/12 06:59:31;;;;;;;2.30;2.20;;;18.00;99.90;;;;;;505215;235;28727;-71
2022/07/12 07:01:33;;;;;;;2.00;1.90;;;18.00;99.90;;;;;;505091;235;28664;-70
2022/07/12 07:03:34;;;;;;;2.30;2.20;;;18.10;99.90;;;;;;505239;235;28640;-70
2022/07/12 07:05:38;;;;;;;2.20;2.10;;;18.10;99.90;;;;;;505180;235;28663;-70
2022/07/12 07:07:36;;;;;;;2.60;2.50;;;18.20;99.90;;;;;;505031;235;28678;-70
2022/07/12 07:09:38;;;;;;;2.40;2.20;;;18.30;99.90;;;;;;505212;235;28696;-70
2022/07/12 07:11:39;;;;;;;2.20;2.10;;;18.40;99.90;;;;;;505218;235;28709;-70
2022/07/12 07:13:40;;;;;;;2.17;2.07;;;18.30;99.90;;;;;;505242;235;29246;-70
2022/07/12 07:15:42;;;;;;;2.20;2.03;;;18.40;99.90;;;;;;505279;235;29314;-70
2022/07/12 07:17:43;;;;;;;2.60;2.50;;;18.20;99.90;;;;;;505254;235;29119;-70
2022/07/12 07:19:44;;;;;;;1.93;1.90;;;18.30;99.90;;;;;;505307;235;28658;-71
2022/07/12 07:21:45;;;;;;;2.40;2.30;;;18.30;99.90;;;;;;505303;235;28716;-70
2022/07/12 07:23:47;;;;;;;2.50;2.30;;;18.40;99.90;;;;;;505270;235;28635;-70
2022/07/12 07:25:48;;;;;;;2.90;2.70;;;18.50;99.90;;;;;;505260;235;28692;-69
2022/07/12 07:27:49;;;;;;;2.23;2.13;;;18.50;99.90;;;;;;505285;235;28703;-70
2022/07/12 07:32:10;;;;;;;2.23;2.13;;;18.40;99.90;;;;;;505287;235;29172;-72
2022/07/12 07:34:11;;;;;;;2.37;2.27;;;18.50;99.90;;;;;;505280;235;29094;-70
2022/07/12 07:36:12;;;;;;;2.57;2.37;;;18.70;99.90;;;;;;505283;235;29131;-71
2022/07/12 07:38:14;;;;;;;2.57;2.47;;;18.60;99.90;;;;;;505297;235;28658;-70
2022/07/12 07:40:15;;;;;;;2.30;2.20;;;18.60;99.90;;;;;;505273;235;28688;-70
2022/07/12 07:42:16;;;;;;;2.40;2.30;;;18.60;99.90;;;;;;505288;235;28734;-71
2022/07/12 07:44:17;;;;;;;2.30;2.20;;;18.60;99.90;;;;;;505296;235;28628;-70
2022/07/12 07:46:19;;;;;;;2.47;2.37;;;18.70;99.90;;;;;;505268;235;28668;-70
2022/07/12 07:48:20;;;;;;;2.17;2.07;;;18.90;99.90;;;;;;505222;235;28677;-70
2022/07/12 07:50:21;;;;;;;2.00;1.90;;;19.00;99.90;;;;;;505246;235;28679;-70
2022/07/12 07:52:22;;;;;;;2.07;1.97;;;18.90;99.90;;;;;;505203;235;28703;-71
2022/07/12 07:54:24;;;;;;;2.27;2.17;;;18.90;99.90;;;;;;505220;235;28735;-70
2022/07/12 07:56:25;;;;;;;2.40;2.20;;;18.80;99.90;;;;;;505163;235;29147;-71
2022/07/12 07:58:26;;;;;;;2.03;1.93;;;18.70;99.90;;;;;;505242;235;29152;-74
2022/07/12 08:00:27;;;;;;;2.43;2.33;;;18.60;99.90;;;;;;505284;235;29071;-70
2022/07/12 08:02:29;;;;;;;2.50;2.40;;;18.70;99.90;;;;;;505231;235;28667;-71
2022/07/12 08:04:30;;;;;;;2.23;2.10;;;18.80;99.90;;;;;;505275;235;28761;-70
2022/07/12 08:06:31;;;;;;;2.50;2.40;;;18.80;99.90;;;;;;505227;235;28671;-70
2022/07/12 08:08:32;;;;;;;2.33;2.23;;;18.90;99.90;;;;;;505261;235;28659;-73
2022/07/12 08:10:34;;;;;;;2.00;1.90;;;19.00;99.90;;;;;;505257;235;28619;-70
2022/07/12 08:12:35;;;;;;;1.97;1.87;;;19.00;99.90;;;;;;505216;235;28798;-70
2022/07/12 08:14:36;;;;;;;1.90;1.80;;;19.00;99.90;;;;;;505220;235;28699;-70
2022/07/12 08:16:37;;;;;;;2.30;2.10;;;19.20;99.90;;;;;;505252;235;28667;-70
2022/07/12 08:18:39;;;;;;;2.60;2.07;;;19.40;99.90;;;;;;505232;235;28759;-73
2022/07/12 08:20:40;;;;;;;1.73;1.73;;;19.50;99.90;;;;;;505258;235;29121;-70
2022/07/12 08:22:41;;;;;;;2.20;2.00;;;19.60;99.90;;;;;;505207;235;29110;-70
2022/07/12 08:24:42;;;;;;;2.53;2.43;;;19.70;99.90;;;;;;497635;235;29135;-70
2022/07/12 08:26:44;;;;;;;2.30;2.20;;;19.70;99.90;;;;;;494512;240;29222;-70
2022/07/12 08:28:45;;;;;;;2.13;2.03;;;19.70;99.90;;;;;;494507;240;28747;-74
2022/07/12 08:30:46;;;;;;;2.07;1.97;;;19.90;99.90;;;;;;494536;240;28722;-70
2022/07/12 08:32:47;;;;;;;2.77;2.20;;;19.90;99.90;;;;;;494493;240;28741;-71
2022/07/12 08:34:49;;;;;;;2.60;2.50;;;19.70;99.90;;;;;;494523;240;28704;-70
2022/07/12 08:36:50;;;;;;;2.43;2.33;;;19.80;99.90;;;;;;494517;240;28775;-71
2022/07/12 08:38:51;;;;;;;2.70;2.60;;;19.80;99.90;;;;;;494496;240;28857;-73
2022/07/12 08:40:52;;;;;;;2.37;2.27;;;19.60;99.90;;;;;;494510;240;28819;-71
2022/07/12 08:42:54;;;;;;;2.53;2.40;;;19.50;99.90;;;;;;494498;240;29276;-72
2022/07/12 08:44:55;;;;;;;2.30;1.70;;;19.80;99.90;;;;;;494490;240;29266;-70
2022/07/12 08:46:56;;;;;;;2.00;1.90;;;20.00;99.90;;;;;;494512;240;29206;-70
2022/07/12 08:48:57;;;;;;;1.80;1.70;;;20.00;99.90;;;;;;494474;240;29328;-74
2022/07/12 08:50:59;;;;;;;2.17;2.00;;;19.90;99.90;;;;;;494537;240;28702;-71
2022/07/12 08:53:00;;;;;;;1.90;1.80;;;19.70;99.90;;;;;;494541;240;28750;-72
2022/07/12 08:55:01;;;;;;;2.23;2.13;;;19.60;99.90;;;;;;494510;240;28706;-71
2022/07/12 08:57:03;;;;;;;1.70;1.70;;;19.80;99.90;;;;;;494500;240;28739;-70
2022/07/12 08:59:04;;;;;;;1.60;1.60;;;20.00;99.90;;;;;;494525;240;28767;-75
2022/07/12 09:01:05;;;;;;;1.87;1.80;;;20.10;99.90;;;;;;494521;240;28718;-70
2022/07/12 09:03:07;;;;;;;2.00;1.90;;;20.30;99.90;;;;;;494546;240;28735;-71
2022/07/12 09:05:08;;;;;;;2.37;1.80;;;20.30;99.90;;;;;;494521;240;28766;-70
2022/07/12 09:07:09;;;;;;;1.90;1.80;;;20.40;99.90;;;;;;494530;240;29213;-70
2022/07/12 09:09:10;;;;;;;1.80;1.70;;;20.30;99.90;;;;;;494511;240;29242;-74
2022/07/12 09:11:11;;;;;;;1.90;1.80;;;20.60;99.90;;;;;;494528;240;29185;-70
2022/07/12 09:13:13;;;;;;;1.77;1.77;;;20.70;99.90;;;;;;494549;240;29236;-72
2022/07/12 09:15:14;;;;;;;1.30;1.30;;;20.80;99.90;;;;;;494505;240;28721;-70
2022/07/12 09:17:15;;;;;;;1.73;1.50;;;20.60;99.90;;;;;;494503;240;28724;-70
2022/07/12 09:19:16;;;;;;;1.80;1.70;;;20.70;99.90;;;;;;494562;240;28738;-74
2022/07/12 09:21:18;;;;;;;1.50;1.50;;;20.60;99.90;;;;;;494528;240;28698;-70
2022/07/12 09:23:19;;;;;;;1.80;1.70;;;20.40;99.90;;;;;;494549;240;28735;-70
2022/07/12 09:25:20;;;;;;;1.60;1.50;;;20.50;99.90;;;;;;494482;240;28769;-70
2022/07/12 09:27:21;;;;;;;1.40;1.30;;;20.60;99.90;;;;;;494524;240;28744;-71
2022/07/12 09:29:23;;;;;;;1.43;1.40;;;20.50;99.90;;;;;;499544;235;28727;-73
2022/07/12 09:31:24;;;;;;;1.60;1.50;;;20.40;99.90;;;;;;498916;233;28718;-70
2022/07/12 09:37:49;;;;;;;1.77;1.67;;;20.80;99.90;;;;;;498724;238;28791;-74
2022/07/12 09:39:50;;;;;;;1.30;1.30;;;21.20;99.90;;;;;;498693;238;28816;-71
2022/07/12 09:41:51;;;;;;;1.40;1.30;;;21.00;99.90;;;;;;498697;238;28805;-70
2022/07/12 09:43:52;;;;;;;1.57;1.43;;;20.60;99.90;;;;;;498691;238;28753;-70
2022/07/12 09:45:54;;;;;;;1.63;1.53;;;20.60;99.90;;;;;;498666;238;28899;-71
2022/07/12 09:47:55;;;;;;;1.50;1.50;;;21.00;99.90;;;;;;498558;238;29311;-71
2022/07/12 09:49:56;;;;;;;1.57;1.47;;;21.00;99.90;;;;;;498720;238;29281;-71
2022/07/12 09:51:57;;;;;;;1.50;1.50;;;21.20;99.90;;;;;;498684;238;29277;-71
2022/07/12 09:53:59;;;;;;;1.27;1.27;;;21.30;99.90;;;;;;498683;238;29973;-70
2022/07/12 09:56:00;;;;;;;1.80;1.30;;;21.00;99.90;;;;;;498690;238;28806;-70
2022/07/12 09:58:02;;;;;;;1.50;1.50;;;20.90;99.90;;;;;;498688;238;28807;-72
2022/07/12 10:00:03;;;;;;;1.80;1.67;;;21.10;99.90;;;;;;498706;238;28863;-71
2022/07/12 10:02:05;;;;;;;1.50;1.50;;;21.00;99.90;;;;;;498693;238;28812;-71
2022/07/12 10:04:05;;;;;;;1.80;1.30;;;21.20;99.90;;;;;;498696;238;28764;-71
2022/07/12 10:06:06;;;;;;;1.40;1.40;;;21.40;99.90;;;;;;498680;238;28788;-70
2022/07/12 10:08:08;;;;;;;1.30;1.20;;;21.20;99.90;;;;;;498693;238;28799;-71
2022/07/12 10:10:09;;;;;;;1.60;1.50;;;21.40;99.90;;;;;;498711;238;29269;-75
2022/07/12 10:12:11;;;;;;;1.17;1.17;;;21.10;99.90;;;;;;498720;238;28896;-70
2022/07/12 10:14:12;;;;;;;1.40;1.40;;;21.10;99.90;;;;;;498669;238;29269;-71
2022/07/12 10:16:13;;;;;;;1.50;1.50;;;21.40;99.90;;;;;;498690;238;29232;-70
2022/07/12 10:18:14;;;;;;;1.40;1.30;;;21.60;99.90;;;;;;498683;238;29271;-70
2022/07/12 10:20:16;;;;;;;1.87;1.40;;;21.80;99.90;;;;;;498679;238;29385;-73
2022/07/12 10:22:17;;;;;;;1.70;1.60;;;21.80;99.90;;;;;;498681;238;28778;-70
2022/07/12 10:24:18;;;;;;;1.60;1.50;;;21.80;99.90;;;;;;498697;238;28906;-70
2022/07/12 10:26:19;;;;;;;1.30;1.30;;;21.50;99.90;;;;;;498690;238;28810;-70
2022/07/12 10:28:21;;;;;;;1.30;1.30;;;21.50;99.90;;;;;;498706;238;28824;-70
2022/07/12 10:30:22;;;;;;;1.30;1.20;;;21.80;99.90;;;;;;498713;238;28824;-74
2022/07/12 10:32:26;;;;;;;2.60;1.50;;;22.10;99.90;;;;;;498717;238;28790;-71
2022/07/12 10:34:29;;;;;;;1.50;1.40;;;22.00;99.90;;;;;;498728;238;28839;-71
2022/07/12 10:36:29;;;;;;;1.50;1.40;;;21.90;99.90;;;;;;498686;238;28877;-71
2022/07/12 10:38:30;;;;;;;1.53;1.53;;;22.20;99.90;;;;;;498669;238;28899;-70
2022/07/12 10:40:31;;;;;;;1.40;1.30;;;22.20;99.90;;;;;;498707;238;28803;-71
2022/07/12 10:42:32;;;;;;;1.30;1.30;;;22.00;99.90;;;;;;498670;238;28816;-72